createdAt,value
2018-12-06T00:00:48.846Z,0
2018-12-06T00:01:51.524Z,0
2018-12-06T00:02:53.646Z,0
2018-12-06T00:03:55.761Z,0
2018-12-06T00:04:57.894Z,0
2018-12-06T00:06:00.005Z,0
2018-12-06T00:07:02.405Z,0
2018-12-06T00:08:04.527Z,0
2018-12-06T00:09:06.726Z,0
2018-12-06T00:10:09.232Z,0
2018-12-06T00:11:11.350Z,0
2018-12-06T00:12:13.472Z,0
2018-12-06T00:13:15.567Z,0
2018-12-06T00:14:17.784Z,0
2018-12-06T00:15:19.919Z,0
2018-12-06T00:16:22.021Z,0
2018-12-06T00:17:24.162Z,0
2018-12-06T00:18:26.262Z,0
2018-12-06T00:19:28.383Z,0
2018-12-06T00:20:30.494Z,0
2018-12-06T00:21:32.670Z,0
2018-12-06T00:22:34.776Z,0
2018-12-06T00:23:36.898Z,0
2018-12-06T00:24:39.021Z,0
2018-12-06T00:25:41.115Z,0
2018-12-06T00:26:43.626Z,0
2018-12-06T00:27:45.737Z,0
2018-12-06T00:28:47.841Z,0
2018-12-06T00:29:49.951Z,0
2018-12-06T00:30:52.073Z,0
2018-12-06T00:31:54.460Z,0
2018-12-06T00:32:56.586Z,0
2018-12-06T00:33:58.782Z,0
2018-12-06T00:35:00.891Z,0
2018-12-06T00:36:03.002Z,0
2018-12-06T00:37:05.125Z,0
2018-12-06T00:38:07.225Z,0
2018-12-06T00:39:09.342Z,0
2018-12-06T00:40:11.750Z,0
2018-12-06T00:41:13.867Z,0
2018-12-06T00:42:15.974Z,0
2018-12-06T00:43:18.368Z,0
2018-12-06T00:44:20.497Z,0
2018-12-06T00:45:22.627Z,0
2018-12-06T00:46:24.740Z,0
2018-12-06T00:47:27.255Z,0
2018-12-06T00:48:29.377Z,0
2018-12-06T00:49:31.482Z,0
2018-12-06T00:50:33.614Z,0
2018-12-06T00:51:36.103Z,0
2018-12-06T00:52:38.498Z,0
2018-12-06T00:53:40.623Z,0
2018-12-06T00:54:43.069Z,0
2018-12-06T00:55:45.168Z,0
2018-12-06T00:56:47.335Z,0
2018-12-06T00:57:49.738Z,0
2018-12-06T00:58:51.833Z,0
2018-12-06T00:59:53.952Z,0
2018-12-06T01:00:56.074Z,0
2018-12-06T01:01:58.180Z,0
2018-12-06T01:03:00.302Z,0
2018-12-06T01:04:02.515Z,0
2018-12-06T01:05:04.634Z,0
2018-12-06T01:06:06.753Z,0
2018-12-06T01:07:08.868Z,0
2018-12-06T01:08:10.976Z,0
2018-12-06T01:09:13.091Z,0
2018-12-06T01:10:15.220Z,0
2018-12-06T01:11:17.319Z,0
2018-12-06T01:12:19.747Z,0
2018-12-06T01:13:21.896Z,0
2018-12-06T01:14:23.997Z,0
2018-12-06T01:15:26.131Z,0
2018-12-06T01:16:28.299Z,0
2018-12-06T01:17:30.413Z,0
2018-12-06T01:18:33.001Z,0
2018-12-06T01:19:35.130Z,0
2018-12-06T01:20:37.538Z,0
2018-12-06T01:21:39.649Z,0
2018-12-06T01:22:42.151Z,0
2018-12-06T01:23:44.245Z,0
2018-12-06T01:24:46.362Z,0
2018-12-06T01:25:48.468Z,0
2018-12-06T01:26:50.603Z,0
2018-12-06T01:27:52.978Z,0
2018-12-06T01:28:55.111Z,0
2018-12-06T01:29:57.212Z,0
2018-12-06T01:30:59.314Z,0
2018-12-06T01:32:01.450Z,0
2018-12-06T01:33:03.838Z,0
2018-12-06T01:34:05.955Z,0
2018-12-06T01:35:08.084Z,0
2018-12-06T01:36:10.209Z,0
2018-12-06T01:37:12.314Z,0
2018-12-06T01:38:14.430Z,0
2018-12-06T01:39:16.552Z,0
2018-12-06T01:40:18.969Z,0
2018-12-06T01:41:21.102Z,0
2018-12-06T01:42:23.213Z,0
2018-12-06T01:43:25.326Z,0
2018-12-06T01:44:27.457Z,0
2018-12-06T01:45:29.564Z,0
2018-12-06T01:46:31.676Z,0
2018-12-06T01:47:34.082Z,0
2018-12-06T01:48:36.181Z,0
2018-12-06T01:49:38.292Z,0
2018-12-06T01:50:40.805Z,0
2018-12-06T01:51:42.937Z,0
2018-12-06T01:52:45.026Z,0
2018-12-06T01:53:47.154Z,0
2018-12-06T01:54:49.261Z,0
2018-12-06T01:55:51.645Z,0
2018-12-06T01:56:53.759Z,0
2018-12-06T01:57:55.888Z,0
2018-12-06T01:58:57.996Z,0
2018-12-06T02:00:00.102Z,0
2018-12-06T02:01:02.201Z,0
2018-12-06T02:02:04.631Z,0
2018-12-06T02:03:06.793Z,0
2018-12-06T02:04:08.902Z,0
2018-12-06T02:05:11.030Z,0
2018-12-06T02:06:13.131Z,0
2018-12-06T02:07:15.240Z,0
2018-12-06T02:08:17.391Z,0
2018-12-06T02:09:19.513Z,0
2018-12-06T02:10:21.710Z,0
2018-12-06T02:11:23.843Z,0
2018-12-06T02:12:25.949Z,0
2018-12-06T02:13:28.076Z,0
2018-12-06T02:14:30.196Z,0
2018-12-06T02:15:32.689Z,0
2018-12-06T02:16:34.815Z,0
2018-12-06T02:17:37.233Z,0
2018-12-06T02:18:39.338Z,0
2018-12-06T02:19:41.448Z,0
2018-12-06T02:20:43.572Z,0
2018-12-06T02:21:45.674Z,0
2018-12-06T02:22:47.819Z,0
2018-12-06T02:23:49.934Z,0
2018-12-06T02:24:52.068Z,0
2018-12-06T02:25:54.176Z,0
2018-12-06T02:26:56.302Z,0
2018-12-06T02:27:58.415Z,0
2018-12-06T02:29:00.522Z,0
2018-12-06T02:30:02.674Z,0
2018-12-06T02:31:05.857Z,0
2018-12-06T02:32:08.365Z,0
2018-12-06T02:33:11.175Z,0
2018-12-06T02:34:13.413Z,0
2018-12-06T02:35:15.817Z,0
2018-12-06T02:36:17.939Z,0
2018-12-06T02:37:20.379Z,0
2018-12-06T02:38:22.787Z,0
2018-12-06T02:39:24.925Z,0
2018-12-06T02:40:27.339Z,0
2018-12-06T02:41:29.450Z,0
2018-12-06T02:42:31.555Z,0
2018-12-06T02:43:33.692Z,0
2018-12-06T02:44:35.801Z,0
2018-12-06T02:45:37.944Z,0
2018-12-06T02:46:40.064Z,0
2018-12-06T02:47:42.193Z,0
2018-12-06T02:48:44.705Z,0
2018-12-06T02:49:46.837Z,0
2018-12-06T02:50:48.951Z,0
2018-12-06T02:51:51.078Z,0
2018-12-06T02:52:53.610Z,0
2018-12-06T02:53:56.011Z,0
2018-12-06T02:54:58.441Z,0
2018-12-06T02:56:00.920Z,0
2018-12-06T02:57:03.712Z,0
2018-12-06T02:58:05.820Z,0
2018-12-06T02:59:08.244Z,0
2018-12-06T03:00:10.357Z,0
2018-12-06T03:01:12.480Z,0
2018-12-06T03:02:14.622Z,0
2018-12-06T03:03:16.996Z,0
2018-12-06T03:04:19.128Z,0
2018-12-06T03:05:21.264Z,0
2018-12-06T03:06:23.396Z,0
2018-12-06T03:07:26.217Z,0
2018-12-06T03:08:28.378Z,0
2018-12-06T03:09:30.507Z,0
2018-12-06T03:10:32.633Z,0
2018-12-06T03:11:34.770Z,0
2018-12-06T03:12:37.159Z,0
2018-12-06T03:13:39.973Z,0
2018-12-06T03:14:42.380Z,0
2018-12-06T03:15:45.180Z,0
2018-12-06T03:16:47.329Z,0
2018-12-06T03:17:49.441Z,0
2018-12-06T03:18:51.887Z,0
2018-12-06T03:19:54.012Z,0
2018-12-06T03:20:56.433Z,0
2018-12-06T03:21:58.555Z,0
2018-12-06T03:23:01.070Z,0
2018-12-06T03:24:03.460Z,0
2018-12-06T03:25:06.261Z,0
2018-12-06T03:26:08.769Z,0
2018-12-06T03:27:10.951Z,0
2018-12-06T03:28:13.102Z,0
2018-12-06T03:29:15.220Z,0
2018-12-06T03:30:17.361Z,0
2018-12-06T03:31:20.572Z,0
2018-12-06T03:32:22.731Z,0
2018-12-06T03:33:25.444Z,0
2018-12-06T03:34:28.230Z,0
2018-12-06T03:35:30.359Z,0
2018-12-06T03:36:32.458Z,0
2018-12-06T03:37:34.596Z,0
2018-12-06T03:38:36.715Z,0
2018-12-06T03:39:38.839Z,0
2018-12-06T03:40:40.953Z,0
2018-12-06T03:41:43.087Z,0
2018-12-06T03:42:45.632Z,0
2018-12-06T03:43:47.753Z,0
2018-12-06T03:44:50.193Z,0
2018-12-06T03:45:52.331Z,0
2018-12-06T03:46:54.458Z,0
2018-12-06T03:47:56.882Z,0
2018-12-06T03:48:58.999Z,0
2018-12-06T03:50:01.604Z,0
2018-12-06T03:51:04.475Z,0
2018-12-06T03:52:06.859Z,0
2018-12-06T03:53:08.996Z,0
2018-12-06T03:54:11.407Z,0
2018-12-06T03:55:13.532Z,0
2018-12-06T03:56:16.015Z,0
2018-12-06T03:57:18.550Z,0
2018-12-06T03:58:20.681Z,0
2018-12-06T03:59:22.918Z,0
2018-12-06T04:00:25.445Z,0
2018-12-06T04:01:27.848Z,0
2018-12-06T04:02:30.265Z,0
2018-12-06T04:03:32.677Z,0
2018-12-06T04:04:35.858Z,0
2018-12-06T04:05:37.986Z,0
2018-12-06T04:06:40.500Z,0
2018-12-06T04:07:42.618Z,0
2018-12-06T04:08:45.113Z,0
2018-12-06T04:09:47.274Z,0
2018-12-06T04:10:49.681Z,0
2018-12-06T04:11:51.816Z,0
2018-12-06T04:12:53.933Z,0
2018-12-06T04:13:56.078Z,0
2018-12-06T04:14:58.479Z,0
2018-12-06T04:16:00.885Z,0
2018-12-06T04:17:04.240Z,0
2018-12-06T04:18:06.355Z,0
2018-12-06T04:19:08.491Z,0
2018-12-06T04:20:11.009Z,0
2018-12-06T04:21:13.426Z,0
2018-12-06T04:22:15.927Z,0
2018-12-06T04:23:18.152Z,0
2018-12-06T04:24:20.260Z,0
2018-12-06T04:25:22.479Z,0
2018-12-06T04:26:25.280Z,0
2018-12-06T04:27:27.995Z,0
2018-12-06T04:28:30.736Z,0
2018-12-06T04:29:34.024Z,0
2018-12-06T04:30:36.465Z,0
2018-12-06T04:31:38.576Z,0
2018-12-06T04:32:41.369Z,0
2018-12-06T04:33:43.504Z,0
2018-12-06T04:34:45.611Z,0
2018-12-06T04:35:47.760Z,0
2018-12-06T04:36:50.167Z,0
2018-12-06T04:37:52.661Z,0
2018-12-06T04:38:54.798Z,0
2018-12-06T04:39:56.931Z,0
2018-12-06T04:40:59.349Z,0
2018-12-06T04:42:01.461Z,0
2018-12-06T04:43:03.606Z,0
2018-12-06T04:44:06.101Z,0
2018-12-06T04:45:08.317Z,0
2018-12-06T04:46:10.430Z,0
2018-12-06T04:47:14.276Z,0
2018-12-06T04:48:21.794Z,0
2018-12-06T04:49:24.459Z,0
2018-12-06T04:50:27.268Z,0
2018-12-06T04:51:29.773Z,0
2018-12-06T04:52:31.887Z,0
2018-12-06T04:53:33.999Z,0
2018-12-06T04:54:36.411Z,0
2018-12-06T04:55:38.532Z,0
2018-12-06T04:56:40.653Z,0
2018-12-06T04:57:42.795Z,0
2018-12-06T04:58:45.458Z,0
2018-12-06T04:59:47.600Z,0
2018-12-06T05:00:49.704Z,0
2018-12-06T05:01:51.843Z,0
2018-12-06T05:02:54.233Z,0
2018-12-06T05:03:56.652Z,0
2018-12-06T05:04:58.740Z,0
2018-12-06T05:06:00.873Z,0
2018-12-06T05:07:02.975Z,0
2018-12-06T05:08:05.396Z,0
2018-12-06T05:09:07.798Z,0
2018-12-06T05:10:09.910Z,0
2018-12-06T05:11:12.008Z,0
2018-12-06T05:12:14.135Z,0
2018-12-06T05:13:16.284Z,0
2018-12-06T05:14:18.722Z,0
2018-12-06T05:15:22.747Z,0
2018-12-06T05:16:24.857Z,0
2018-12-06T05:17:26.993Z,0
2018-12-06T05:18:29.105Z,0
2018-12-06T05:19:31.243Z,0
2018-12-06T05:20:33.635Z,0
2018-12-06T05:21:35.754Z,0
2018-12-06T05:22:37.896Z,0
2018-12-06T05:23:39.992Z,0
2018-12-06T05:24:42.412Z,0
2018-12-06T05:25:44.534Z,0
2018-12-06T05:26:46.648Z,0
2018-12-06T05:27:48.756Z,0
2018-12-06T05:28:51.520Z,0
2018-12-06T05:29:53.923Z,0
2018-12-06T05:30:56.034Z,0
2018-12-06T05:31:58.166Z,0
2018-12-06T05:33:00.262Z,0
2018-12-06T05:34:02.380Z,0
2018-12-06T05:35:04.887Z,0
2018-12-06T05:36:06.999Z,0
2018-12-06T05:37:09.519Z,0
2018-12-06T05:38:11.626Z,0
2018-12-06T05:39:14.239Z,0
2018-12-06T05:40:16.354Z,0
2018-12-06T05:41:18.445Z,0
2018-12-06T05:42:20.574Z,0
2018-12-06T05:43:22.682Z,0
2018-12-06T05:44:24.806Z,0
2018-12-06T05:45:26.933Z,0
2018-12-06T05:46:29.055Z,0
2018-12-06T05:47:31.157Z,0
2018-12-06T05:48:33.282Z,0
2018-12-06T05:49:35.370Z,0
2018-12-06T05:50:37.471Z,0
2018-12-06T05:51:39.609Z,0
2018-12-06T05:52:41.716Z,0
2018-12-06T05:53:43.839Z,0
2018-12-06T05:54:45.964Z,0
2018-12-06T05:55:48.115Z,0
2018-12-06T05:56:50.243Z,0
2018-12-06T05:57:52.343Z,0
2018-12-06T05:58:54.469Z,0
2018-12-06T05:59:56.598Z,0
2018-12-06T06:00:59.009Z,0
2018-12-06T06:02:01.118Z,0
2018-12-06T06:03:03.246Z,0
2018-12-06T06:04:05.379Z,0
2018-12-06T06:05:07.505Z,0
2018-12-06T06:06:09.623Z,0
2018-12-06T06:07:11.722Z,0
2018-12-06T06:08:13.856Z,0
2018-12-06T06:09:16.350Z,0
2018-12-06T06:10:18.766Z,0
2018-12-06T06:11:21.241Z,0
2018-12-06T06:12:23.364Z,0
2018-12-06T06:13:25.753Z,0
2018-12-06T06:14:28.247Z,0
2018-12-06T06:15:30.340Z,0
2018-12-06T06:16:32.466Z,0
2018-12-06T06:17:34.596Z,0
2018-12-06T06:18:36.698Z,0
2018-12-06T06:19:39.082Z,0
2018-12-06T06:20:41.220Z,0
2018-12-06T06:21:43.311Z,0
2018-12-06T06:22:45.489Z,0
2018-12-06T06:23:47.602Z,0
2018-12-06T06:24:50.004Z,0
2018-12-06T06:25:52.109Z,0
2018-12-06T06:26:54.628Z,0
2018-12-06T06:27:56.749Z,0
2018-12-06T06:28:58.846Z,0
2018-12-06T06:30:00.982Z,0
2018-12-06T06:31:03.776Z,0
2018-12-06T06:32:05.886Z,0
2018-12-06T06:33:08.806Z,0
2018-12-06T06:34:10.966Z,0
2018-12-06T06:35:13.202Z,0
2018-12-06T06:36:15.602Z,0
2018-12-06T06:37:18.022Z,0
2018-12-06T06:38:20.156Z,0
2018-12-06T06:39:22.274Z,4
2018-12-06T06:40:24.730Z,4
2018-12-06T06:41:26.827Z,4
2018-12-06T06:42:29.241Z,4
2018-12-06T06:43:31.329Z,4
2018-12-06T06:44:33.454Z,8
2018-12-06T06:45:35.548Z,4
2018-12-06T06:46:37.658Z,4
2018-12-06T06:47:39.778Z,8
2018-12-06T06:48:42.286Z,8
2018-12-06T06:49:44.412Z,8
2018-12-06T06:50:46.523Z,8
2018-12-06T06:51:48.634Z,12
2018-12-06T06:52:50.735Z,8
2018-12-06T06:53:52.858Z,12
2018-12-06T06:54:55.272Z,12
2018-12-06T06:55:57.795Z,12
2018-12-06T06:56:59.898Z,16
2018-12-06T06:58:02.003Z,20
2018-12-06T06:59:04.130Z,20
2018-12-06T07:00:06.227Z,20
2018-12-06T07:01:08.614Z,24
2018-12-06T07:02:23.474Z,28
2018-12-06T07:03:25.506Z,28
2018-12-06T07:04:27.524Z,28
2018-12-06T07:05:29.844Z,32
2018-12-06T07:06:31.882Z,36
2018-12-06T07:07:33.909Z,40
2018-12-06T07:08:35.927Z,36
2018-12-06T07:09:38.032Z,44
2018-12-06T07:10:40.037Z,48
2018-12-06T07:11:42.087Z,52
2018-12-06T07:12:44.097Z,56
2018-12-06T07:13:46.129Z,68
2018-12-06T07:14:48.143Z,76
2018-12-06T07:15:50.255Z,88
2018-12-06T07:16:52.286Z,100
2018-12-06T07:17:54.346Z,112
2018-12-06T07:18:56.369Z,124
2018-12-06T07:19:58.394Z,132
2018-12-06T07:21:00.507Z,136
2018-12-06T07:22:02.541Z,136
2018-12-06T07:23:04.584Z,132
2018-12-06T07:24:06.588Z,128
2018-12-06T07:25:08.911Z,120
2018-12-06T07:26:11.073Z,112
2018-12-06T07:27:13.107Z,120
2018-12-06T07:28:15.792Z,136
2018-12-06T07:29:17.826Z,136
2018-12-06T07:30:19.858Z,140
2018-12-06T07:31:21.895Z,144
2018-12-06T07:32:23.923Z,156
2018-12-06T07:33:26.017Z,160
2018-12-06T07:34:28.038Z,168
2018-12-06T07:35:32.148Z,180
2018-12-06T07:36:34.246Z,172
2018-12-06T07:37:36.290Z,168
2018-12-06T07:38:38.317Z,180
2018-12-06T07:39:40.330Z,188
2018-12-06T07:40:42.362Z,208
2018-12-06T07:41:44.398Z,228
2018-12-06T07:42:46.445Z,252
2018-12-06T07:43:48.489Z,264
2018-12-06T07:44:50.510Z,260
2018-12-06T07:45:52.930Z,256
2018-12-06T07:46:54.944Z,252
2018-12-06T07:47:57.657Z,244
2018-12-06T07:48:59.965Z,252
2018-12-06T07:50:02.002Z,252
2018-12-06T07:51:04.044Z,256
2018-12-06T07:52:06.779Z,260
2018-12-06T07:53:09.078Z,276
2018-12-06T07:54:11.153Z,296
2018-12-06T07:55:14.899Z,304
2018-12-06T07:56:17.216Z,304
2018-12-06T07:57:19.532Z,304
2018-12-06T07:58:21.588Z,312
2018-12-06T07:59:23.613Z,300
2018-12-06T08:00:25.654Z,308
2018-12-06T08:01:27.674Z,296
2018-12-06T08:02:29.684Z,276
2018-12-06T08:03:31.724Z,256
2018-12-06T08:04:34.103Z,244
2018-12-06T08:05:36.412Z,240
2018-12-06T08:06:38.825Z,268
2018-12-06T08:07:40.856Z,308
2018-12-06T08:08:42.905Z,312
2018-12-06T08:09:44.967Z,328
2018-12-06T08:10:47.011Z,348
2018-12-06T08:11:49.019Z,356
2018-12-06T08:12:51.050Z,356
2018-12-06T08:13:53.085Z,360
2018-12-06T08:14:55.120Z,356
2018-12-06T08:15:57.144Z,352
2018-12-06T08:16:59.463Z,364
2018-12-06T08:18:01.504Z,392
2018-12-06T08:19:03.519Z,432
2018-12-06T08:20:05.544Z,468
2018-12-06T08:21:07.561Z,476
2018-12-06T08:22:09.595Z,484
2018-12-06T08:23:11.622Z,484
2018-12-06T08:24:13.666Z,504
2018-12-06T08:25:16.473Z,544
2018-12-06T08:26:18.874Z,608
2018-12-06T08:27:20.896Z,664
2018-12-06T08:28:22.933Z,776
2018-12-06T08:29:25.358Z,912
2018-12-06T08:30:27.374Z,1028
2018-12-06T08:31:29.402Z,1124
2018-12-06T08:32:31.448Z,1184
2018-12-06T08:33:33.752Z,1268
2018-12-06T08:34:36.072Z,1292
2018-12-06T08:35:38.093Z,1284
2018-12-06T08:36:40.112Z,1348
2018-12-06T08:37:42.141Z,1488
2018-12-06T08:38:44.455Z,1600
2018-12-06T08:39:46.455Z,1636
2018-12-06T08:40:48.870Z,1596
2018-12-06T08:41:50.922Z,1632
2018-12-06T08:42:52.923Z,1620
2018-12-06T08:43:54.970Z,1632
2018-12-06T08:44:57.376Z,1672
2018-12-06T08:45:59.404Z,1756
2018-12-06T08:47:01.710Z,1840
2018-12-06T08:48:03.740Z,1868
2018-12-06T08:49:06.161Z,1944
2018-12-06T08:50:08.194Z,2012
2018-12-06T08:51:10.584Z,2096
2018-12-06T08:52:12.608Z,2148
2018-12-06T08:53:14.637Z,2220
2018-12-06T08:54:16.657Z,2260
2018-12-06T08:55:19.067Z,2240
2018-12-06T08:56:21.370Z,2244
2018-12-06T08:57:23.396Z,2220
2018-12-06T08:58:25.523Z,2284
2018-12-06T08:59:27.553Z,2440
2018-12-06T09:00:29.564Z,2572
2018-12-06T09:01:31.988Z,2576
2018-12-06T09:02:34.390Z,2556
2018-12-06T09:03:36.422Z,2576
2018-12-06T09:04:38.459Z,2536
2018-12-06T09:05:40.499Z,2544
2018-12-06T09:06:42.542Z,2692
2018-12-06T09:07:44.560Z,2952
2018-12-06T09:08:46.595Z,3308
2018-12-06T09:09:48.618Z,3716
2018-12-06T09:10:51.633Z,3896
2018-12-06T09:11:54.898Z,3920
2018-12-06T09:12:57.305Z,3788
2018-12-06T09:13:59.384Z,4032
2018-12-06T09:15:01.406Z,4296
2018-12-06T09:16:04.132Z,4628
2018-12-06T09:17:06.149Z,4768
2018-12-06T09:18:08.192Z,4784
2018-12-06T09:19:10.241Z,4604
2018-12-06T09:20:12.267Z,4564
2018-12-06T09:21:14.269Z,4488
2018-12-06T09:22:16.679Z,4176
2018-12-06T09:23:18.685Z,3628
2018-12-06T09:24:20.738Z,3132
2018-12-06T09:25:22.772Z,3088
2018-12-06T09:26:24.786Z,2740
2018-12-06T09:27:27.201Z,2616
2018-12-06T09:28:29.240Z,2472
2018-12-06T09:29:31.251Z,2352
2018-12-06T09:30:33.676Z,2484
2018-12-06T09:31:35.683Z,2916
2018-12-06T09:32:37.782Z,3056
2018-12-06T09:33:39.871Z,3416
2018-12-06T09:34:41.903Z,3456
2018-12-06T09:35:43.937Z,3552
2018-12-06T09:36:45.969Z,3344
2018-12-06T09:37:47.999Z,3440
2018-12-06T09:38:50.014Z,3364
2018-12-06T09:39:52.061Z,3188
2018-12-06T09:40:54.078Z,3340
2018-12-06T09:41:56.114Z,3888
2018-12-06T09:42:58.143Z,4372
2018-12-06T09:44:00.160Z,4556
2018-12-06T09:45:02.183Z,4652
2018-12-06T09:46:04.217Z,4888
2018-12-06T09:47:06.805Z,4964
2018-12-06T09:48:08.838Z,4812
2018-12-06T09:49:10.838Z,4768
2018-12-06T09:50:12.877Z,4484
2018-12-06T09:51:14.901Z,3956
2018-12-06T09:52:16.926Z,3836
2018-12-06T09:53:18.959Z,3672
2018-12-06T09:54:21.372Z,3400
2018-12-06T09:55:23.970Z,3436
2018-12-06T09:56:25.990Z,3556
2018-12-06T09:57:28.377Z,3784
2018-12-06T09:58:30.453Z,3748
2018-12-06T09:59:32.463Z,3592
2018-12-06T10:00:34.482Z,3768
2018-12-06T10:01:36.518Z,3860
2018-12-06T10:02:38.539Z,3688
2018-12-06T10:03:40.560Z,3532
2018-12-06T10:04:42.900Z,3628
2018-12-06T10:05:44.919Z,3452
2018-12-06T10:06:46.952Z,3256
2018-12-06T10:07:48.977Z,3272
2018-12-06T10:08:51.280Z,3412
2018-12-06T10:09:53.701Z,3040
2018-12-06T10:10:55.720Z,2988
2018-12-06T10:11:58.011Z,2996
2018-12-06T10:13:00.056Z,3032
2018-12-06T10:14:02.088Z,2956
2018-12-06T10:15:04.139Z,3096
2018-12-06T10:16:06.164Z,3000
2018-12-06T10:17:08.188Z,2740
2018-12-06T10:18:10.212Z,2372
2018-12-06T10:19:12.244Z,2028
2018-12-06T10:20:14.261Z,1948
2018-12-06T10:21:16.298Z,2068
2018-12-06T10:22:18.328Z,1832
2018-12-06T10:23:20.630Z,1704
2018-12-06T10:24:22.717Z,1668
2018-12-06T10:25:24.742Z,1544
2018-12-06T10:26:26.760Z,1552
2018-12-06T10:27:28.799Z,1448
2018-12-06T10:28:30.822Z,1488
2018-12-06T10:29:32.850Z,1652
2018-12-06T10:30:34.912Z,1788
2018-12-06T10:31:36.922Z,1756
2018-12-06T10:32:38.954Z,1748
2018-12-06T10:33:40.977Z,1856
2018-12-06T10:34:43.296Z,1972
2018-12-06T10:35:55.697Z,2192
2018-12-06T10:36:57.741Z,2328
2018-12-06T10:38:00.068Z,2156
2018-12-06T10:39:02.540Z,2064
2018-12-06T10:40:04.568Z,1960
2018-12-06T10:41:07.107Z,1988
2018-12-06T10:42:09.124Z,2028
2018-12-06T10:43:11.229Z,2100
2018-12-06T10:44:13.547Z,2244
2018-12-06T10:45:15.577Z,2272
2018-12-06T10:46:17.591Z,2304
2018-12-06T10:47:19.653Z,2360
2018-12-06T10:48:21.669Z,2356
2018-12-06T10:49:23.686Z,2256
2018-12-06T10:50:26.097Z,2292
2018-12-06T10:51:28.139Z,2432
2018-12-06T10:52:30.166Z,2284
2018-12-06T10:53:32.208Z,2036
2018-12-06T10:54:34.248Z,2016
2018-12-06T10:55:36.954Z,2088
2018-12-06T10:56:39.263Z,2280
2018-12-06T10:57:41.291Z,2484
2018-12-06T10:58:43.313Z,2668
2018-12-06T10:59:45.339Z,2808
2018-12-06T11:00:47.350Z,2728
2018-12-06T11:01:49.378Z,2644
2018-12-06T11:02:51.681Z,2664
2018-12-06T11:03:53.806Z,2556
2018-12-06T11:04:55.833Z,2380
2018-12-06T11:05:57.851Z,2244
2018-12-06T11:06:59.897Z,2164
2018-12-06T11:08:01.929Z,2176
2018-12-06T11:09:03.951Z,2408
2018-12-06T11:10:05.961Z,2780
2018-12-06T11:11:08.075Z,2852
2018-12-06T11:12:10.087Z,2628
2018-12-06T11:13:12.131Z,2660
2018-12-06T11:14:14.168Z,2676
2018-12-06T11:15:16.187Z,2628
2018-12-06T11:16:18.214Z,2604
2018-12-06T11:17:20.549Z,2624
2018-12-06T11:18:22.559Z,2772
2018-12-06T11:19:24.609Z,2760
2018-12-06T11:20:26.634Z,2708
2018-12-06T11:21:28.648Z,2724
2018-12-06T11:22:30.684Z,2800
2018-12-06T11:23:32.702Z,2864
2018-12-06T11:24:34.725Z,2812
2018-12-06T11:25:37.143Z,2876
2018-12-06T11:26:39.174Z,3180
2018-12-06T11:27:41.181Z,3360
2018-12-06T11:28:43.210Z,3228
2018-12-06T11:29:45.261Z,3320
2018-12-06T11:30:47.287Z,3552
2018-12-06T11:31:49.334Z,3600
2018-12-06T11:32:51.381Z,3948
2018-12-06T11:33:53.409Z,4100
2018-12-06T11:34:55.440Z,3928
2018-12-06T11:35:57.848Z,3776
2018-12-06T11:37:00.567Z,3708
2018-12-06T11:38:02.589Z,3472
2018-12-06T11:39:04.630Z,3064
2018-12-06T11:40:07.041Z,2616
2018-12-06T11:41:09.158Z,2252
2018-12-06T11:42:11.179Z,1940
2018-12-06T11:43:13.198Z,1692
2018-12-06T11:44:15.217Z,1608
2018-12-06T11:45:17.255Z,1708
2018-12-06T11:46:19.862Z,1952
2018-12-06T11:47:21.873Z,2312
2018-12-06T11:48:26.992Z,2888
2018-12-06T11:49:29.151Z,3440
2018-12-06T11:50:31.453Z,3464
2018-12-06T11:51:33.470Z,3212
2018-12-06T11:52:35.531Z,3168
2018-12-06T11:53:37.549Z,3112
2018-12-06T11:54:39.590Z,2792
2018-12-06T11:55:41.883Z,2264
2018-12-06T11:56:43.902Z,1924
2018-12-06T11:57:45.926Z,1764
2018-12-06T11:58:47.966Z,1812
2018-12-06T11:59:50.341Z,1868
2018-12-06T12:00:52.395Z,1928
2018-12-06T12:01:54.433Z,2120
2018-12-06T12:02:56.448Z,2504
2018-12-06T12:03:58.486Z,2844
2018-12-06T12:05:00.872Z,3092
2018-12-06T12:06:03.192Z,3120
2018-12-06T12:07:05.220Z,2916
2018-12-06T12:08:07.278Z,2672
2018-12-06T12:09:09.600Z,2324
2018-12-06T12:10:11.636Z,1912
2018-12-06T12:11:13.666Z,1676
2018-12-06T12:12:15.705Z,1504
2018-12-06T12:13:17.736Z,1420
2018-12-06T12:14:19.755Z,1408
2018-12-06T12:15:21.799Z,1368
2018-12-06T12:16:23.821Z,1292
2018-12-06T12:17:25.851Z,1388
2018-12-06T12:18:27.889Z,1864
2018-12-06T12:19:29.913Z,1908
2018-12-06T12:20:32.249Z,1908
2018-12-06T12:21:34.279Z,2004
2018-12-06T12:22:36.322Z,2064
2018-12-06T12:23:38.339Z,2240
2018-12-06T12:24:40.659Z,2448
2018-12-06T12:25:42.964Z,2340
2018-12-06T12:26:45.374Z,2100
2018-12-06T12:27:47.418Z,1864
2018-12-06T12:28:49.425Z,1648
2018-12-06T12:29:51.466Z,1616
2018-12-06T12:30:53.885Z,1564
2018-12-06T12:31:55.916Z,1304
2018-12-06T12:32:58.334Z,1348
2018-12-06T12:34:00.469Z,1396
2018-12-06T12:35:02.521Z,1452
2018-12-06T12:36:04.534Z,1564
2018-12-06T12:37:06.574Z,1576
2018-12-06T12:38:08.599Z,1432
2018-12-06T12:39:10.616Z,1460
2018-12-06T12:40:12.634Z,1352
2018-12-06T12:41:14.695Z,1236
2018-12-06T12:42:16.755Z,1252
2018-12-06T12:43:19.213Z,1212
2018-12-06T12:44:21.250Z,1168
2018-12-06T12:45:23.280Z,1096
2018-12-06T12:46:25.318Z,1000
2018-12-06T12:47:27.710Z,912
2018-12-06T12:48:30.064Z,872
2018-12-06T12:49:32.086Z,764
2018-12-06T12:50:34.117Z,728
2018-12-06T12:51:36.128Z,716
2018-12-06T12:52:38.170Z,700
2018-12-06T12:53:40.210Z,688
2018-12-06T12:54:42.271Z,736
2018-12-06T12:55:44.323Z,756
2018-12-06T12:56:46.348Z,812
2018-12-06T12:57:48.365Z,844
2018-12-06T12:58:50.415Z,936
2018-12-06T12:59:52.436Z,980
2018-12-06T13:00:54.474Z,1016
2018-12-06T13:01:57.291Z,1004
2018-12-06T13:02:59.326Z,964
2018-12-06T13:04:01.624Z,920
2018-12-06T13:05:03.675Z,964
2018-12-06T13:06:05.702Z,1044
2018-12-06T13:07:07.721Z,1088
2018-12-06T13:08:09.776Z,1112
2018-12-06T13:09:11.793Z,1000
2018-12-06T13:10:13.829Z,1076
2018-12-06T13:11:15.934Z,1168
2018-12-06T13:12:17.975Z,1112
2018-12-06T13:13:20.038Z,1196
2018-12-06T13:14:22.070Z,1368
2018-12-06T13:15:24.112Z,1336
2018-12-06T13:16:26.163Z,1264
2018-12-06T13:17:28.290Z,1124
2018-12-06T13:18:30.312Z,1068
2018-12-06T13:19:32.620Z,1104
2018-12-06T13:20:34.663Z,1096
2018-12-06T13:21:37.074Z,1088
2018-12-06T13:22:39.126Z,1072
2018-12-06T13:23:41.221Z,968
2018-12-06T13:24:43.950Z,952
2018-12-06T13:25:45.979Z,1008
2018-12-06T13:26:48.111Z,1000
2018-12-06T13:27:50.146Z,956
2018-12-06T13:28:52.193Z,1004
2018-12-06T13:29:54.223Z,956
2018-12-06T13:30:56.542Z,908
2018-12-06T13:31:58.565Z,928
2018-12-06T13:33:00.684Z,808
2018-12-06T13:34:02.738Z,680
2018-12-06T13:35:04.764Z,652
2018-12-06T13:36:07.180Z,676
2018-12-06T13:37:09.228Z,660
2018-12-06T13:38:11.283Z,644
2018-12-06T13:39:13.306Z,660
2018-12-06T13:40:15.349Z,584
2018-12-06T13:41:17.432Z,524
2018-12-06T13:42:23.446Z,548
2018-12-06T13:43:26.114Z,648
2018-12-06T13:44:28.519Z,668
2018-12-06T13:45:30.635Z,772
2018-12-06T13:46:32.672Z,784
2018-12-06T13:47:34.685Z,832
2018-12-06T13:48:36.729Z,812
2018-12-06T13:49:38.764Z,776
2018-12-06T13:50:42.813Z,592
2018-12-06T13:51:45.220Z,560
2018-12-06T13:52:47.533Z,588
2018-12-06T13:53:49.576Z,640
2018-12-06T13:54:51.622Z,552
2018-12-06T13:55:53.644Z,556
2018-12-06T13:56:55.702Z,692
2018-12-06T13:57:57.756Z,712
2018-12-06T13:58:59.966Z,732
2018-12-06T14:00:01.994Z,664
2018-12-06T14:01:04.404Z,640
2018-12-06T14:02:09.476Z,616
2018-12-06T14:03:11.524Z,656
2018-12-06T14:04:13.940Z,636
2018-12-06T14:05:16.039Z,632
2018-12-06T14:06:18.086Z,580
2018-12-06T14:07:20.102Z,576
2018-12-06T14:08:22.139Z,464
2018-12-06T14:09:24.179Z,452
2018-12-06T14:10:26.435Z,484
2018-12-06T14:11:28.461Z,600
2018-12-06T14:12:30.507Z,584
2018-12-06T14:13:32.519Z,504
2018-12-06T14:14:34.552Z,384
2018-12-06T14:15:36.589Z,388
2018-12-06T14:16:38.620Z,432
2018-12-06T14:17:40.934Z,484
2018-12-06T14:18:42.981Z,444
2018-12-06T14:19:45.038Z,384
2018-12-06T14:20:47.088Z,332
2018-12-06T14:21:49.296Z,312
2018-12-06T14:22:51.745Z,268
2018-12-06T14:23:53.780Z,268
2018-12-06T14:24:56.066Z,252
2018-12-06T14:25:58.111Z,280
2018-12-06T14:27:00.464Z,296
2018-12-06T14:28:02.515Z,276
2018-12-06T14:29:04.589Z,260
2018-12-06T14:30:06.687Z,264
2018-12-06T14:31:09.064Z,224
2018-12-06T14:32:11.118Z,200
2018-12-06T14:33:13.150Z,228
2018-12-06T14:34:15.236Z,256
2018-12-06T14:35:17.275Z,252
2018-12-06T14:36:19.353Z,248